Nearby METAR Reports

Here are local weather reports from nearby weather stations and airports.

KHFD - Hartford/Brainar, Connecticut, USA
Distance from station: NE 5mi, 8km
Updated: Wed, 10/05/22 4:53pm EDT
Overcast
Overcast
 Wind from N
Wind: N 8 mph , 13 km/h
Temperature: 61°F , 16°C
Dew Point: 54°F , 12°C
Humidity: 77%
Barometer: 29.91 inHg , 1012.9 hPa
Clouds: Overcast
Visibility: 10 miles , 16 km
Cloud details: Overcast 1600 ft
2022/10/05 20:53 KHFD 052053Z 36007KT 10SM OVC016 16/12 A2991 RMK AO2 SLP129 T01610122 53004
KMMK - Meriden, Connecticut, USA
Distance from station: SSW 13mi, 21km
Updated: Wed, 10/05/22 5:15pm EDT
Heavy rain, Mist, Overcast
Heavy rain, Mist, Overcast
 Wind from calm
Wind: Calm
Temperature: 57°F , 14°C
Dew Point: 55°F , 13°C
Humidity: 94%
Barometer: 29.93 inHg , 1013.5 hPa
Summary: Heavy rain, Mist
Clouds: Overcast
Visibility: 3/4 mile , 1.2 km
Cloud details: Mostly cloudy 1600 ft
Overcast 2200 ft
2022/10/05 21:15 KMMK 052115Z AUTO 00000KT 3/4SM +RA BR BKN016 OVC022 14/13 A2993 RMK AO2 P0028 T01440128
 
KBDL - Windsor Locks, Connecticut, USA
Distance from station: N 17mi, 28km
Updated: Wed, 10/05/22 4:51pm EDT
Overcast
Overcast
 Wind from N
Wind: N 10 mph , 17 km/h
Temperature: 61°F , 16°C
Dew Point: 54°F , 12°C
Humidity: 77%
Barometer: 29.92 inHg , 1013.2 hPa
Clouds: Overcast
Visibility: 10 miles , 16 km
Cloud details: Overcast 1800 ft
2022/10/05 20:51 KBDL 052051Z 36009KT 10SM OVC018 16/12 A2992 RMK AO2 SLP130 T01610122 53002
KSNC - Chester, Connecticut, USA
Distance from station: SSE 24mi, 38km
Updated: Wed, 10/05/22 5:15pm EDT
Light rain, Overcast
Light rain, Overcast
 Wind from NW
Wind: NW 6 mph , 9 km/h
Temperature: 57°F , 14°C
Dew Point: 57°F , 14°C
Humidity: 100%
Barometer: 29.92 inHg , 1013.2 hPa
Summary: Light rain
Clouds: Overcast
Visibility: 1 1/4 miles , 2 km
Cloud details: Overcast 400 ft
2022/10/05 21:15 KSNC 052115Z AUTO 31005KT 1 1/4SM -RA OVC004 14/14 A2992 RMK AO2
 
KOXC - Oxford/Waterbury, Connecticut, USA
Distance from station: SW 26mi, 42km
Updated: Wed, 10/05/22 5:01pm EDT
Heavy rain, Mist, Overcast
Heavy rain, Mist, Overcast
 Wind from N
Wind: N 13 mph , 20 km/h
Temperature: 57°F , 14°C
Dew Point: 55°F , 13°C
Humidity: 94%
Barometer: 29.93 inHg , 1013.5 hPa
Summary: Heavy rain, Mist
Clouds: Overcast
Visibility: 2 miles , 3 km
Cloud details: Overcast 1100 ft
2022/10/05 21:01 KOXC 052101Z 01011KT 2SM +RA BR OVC011 14/13 A2993 RMK AO2 P0000
KIJD - Willimantic, Connecticut, USA
Distance from station: E 28mi, 45km
Updated: Wed, 10/05/22 4:52pm EDT
Overcast
Overcast
 Wind from NNE
Wind: NNE 6 mph , 9 km/h
Temperature: 61°F , 16°C
Dew Point: 55°F , 13°C
Humidity: 83%
Barometer: 29.91 inHg , 1012.9 hPa
Clouds: Overcast
Visibility: 10 miles , 16 km
Cloud details: Overcast 1300 ft
2022/10/05 20:52 KIJD 052052Z AUTO 02005KT 10SM OVC013 16/13 A2991 RMK AO2 SLP126 T01560133 53003
 
KHVN - New Haven/Tweed, Connecticut, USA
Distance from station: SSW 30mi, 48km
Updated: Wed, 10/05/22 4:53pm EDT
Light rain, Mist, Overcast
Light rain, Mist, Overcast
 Wind from NNE
Wind: NNE 13 mph , 20 km/h
Temperature: 61°F , 16°C
Dew Point: 57°F , 14°C
Humidity: 88%
Barometer: 29.89 inHg , 1012.2 hPa
Summary: Light rain, Mist
Clouds: Overcast
Visibility: 3 miles , 5 km
Cloud details: Mostly cloudy 1300 ft
Overcast 8000 ft
2022/10/05 20:53 KHVN 052053Z 03011KT 3SM -RA BR BKN013 OVC080 16/14 A2989 RMK AO2 RAB10 SLP122 P0002 60003 T01610144 50001
KBAF - Westfield, Massachusetts, USA
Distance from station: 0 33mi, 54km
Updated: Wed, 10/05/22 5:19pm EDT
Light rain, Overcast
Light rain, Overcast
 Wind from NNE
Wind: NNE 5 mph , 7 km/h
Temperature: 57°F , 14°C
Dew Point: 55°F , 13°C
Humidity: 94%
Barometer: 29.93 inHg , 1013.5 hPa
Summary: Light rain
Clouds: Overcast
Visibility: 8 miles , 13 km
Cloud details: Mostly cloudy 2100 ft
Mostly cloudy 4500 ft
Overcast 10000 ft
2022/10/05 21:19 KBAF 052119Z 03004KT 8SM -RA BKN021 BKN045 OVC100 14/13 A2993 RMK AO2 P0003 T01440133
 
KCEF - Chicopee/Westove, Massachusetts, USA
Distance from station: NNE 37mi, 60km
Updated: Wed, 10/05/22 4:55pm EDT
Overcast
Overcast
 Wind from N
Wind: N 7 mph , 11 km/h
Temperature: 57°F , 14°C
Dew Point: 57°F , 14°C
Humidity: 100%
Barometer: 29.90 inHg , 1012.5 hPa
Clouds: Overcast
Visibility: 10 miles , 16 km
Cloud details: Few Clouds 800 ft
Overcast 1500 ft
2022/10/05 20:55 KCEF 052055Z 01006KT 10SM FEW008 OVC015 14/14 A2990 RMK AO2A SLP131 P0001 60001 T01440142 53002
KBDR - Bridgeport, Connecticut, USA
Distance from station: SSW 42mi, 67km
Updated: Wed, 10/05/22 4:52pm EDT
Overcast
Overcast
 Wind from NNE
Wind: NNE 10 mph , 17 km/h
Temperature: 61°F , 16°C
Dew Point: 57°F , 14°C
Humidity: 88%
Barometer: 29.88 inHg , 1011.9 hPa
Clouds: Overcast
Visibility: 10 miles , 16 km
Cloud details: Overcast 9500 ft
2022/10/05 20:52 KBDR 052052Z 02009KT 10SM OVC095 16/14 A2988 RMK AO2 RAE42 SLP118 TS DSNT E AND SW MOVG W P0006 60019 T01560139 58002
 
KGON - Groton/New Londo, Connecticut, USA
Distance from station: SE 42mi, 68km
Updated: Wed, 10/05/22 4:56pm EDT
Overcast
Overcast
 Wind from N
Wind: N 9 mph , 15 km/h
Temperature: 63°F , 17°C
Dew Point: 55°F , 13°C
Humidity: 77%
Barometer: 29.87 inHg , 1011.5 hPa
Clouds: Overcast
Visibility: 10 miles , 16 km
Cloud details: Mostly cloudy 1400 ft
Overcast 2500 ft
2022/10/05 20:56 KGON 052056Z 35008KT 10SM BKN014 OVC025 17/13 A2987 RMK AO2 RAB09E24 SLP114 P0000 60001 T01670133 51006
KDXR - Danbury, Connecticut, USA
Distance from station: WSW 45mi, 73km
Updated: Wed, 10/05/22 5:24pm EDT
Mist, Overcast
Mist, Overcast
 Wind from N
Wind: N 9 mph , 15 km/h
Temperature: 61°F , 16°C
Dew Point: 57°F , 14°C
Humidity: 88%
Barometer: 29.93 inHg , 1013.5 hPa
Summary: Mist
Clouds: Overcast
Visibility: 2 1/2 miles , 4 km
Cloud details: Few Clouds 900 ft
Partly cloudy 1400 ft
Overcast 3500 ft
2022/10/05 21:24 KDXR 052124Z 35008KT 2 1/2SM BR FEW009 SCT014 OVC035 16/14 A2993 RMK AO2 RAB10E20 P0000 T01610139